sensor_id;sensor_type;location;lat;lon;timestamp;P1;durP1;ratioP1;P2;durP2;ratioP2
58308;SDS011;44117;57.142;24.826;2022-09-01T00:02:28;4.75;;;3.08;;
58308;SDS011;44117;57.142;24.826;2022-09-01T00:04:56;5.10;;;3.08;;
58308;SDS011;44117;57.142;24.826;2022-09-01T00:07:28;4.80;;;3.03;;
58308;SDS011;44117;57.142;24.826;2022-09-01T00:09:56;5.05;;;3.05;;
58308;SDS011;44117;57.142;24.826;2022-09-01T00:12:25;4.35;;;2.97;;
58308;SDS011;44117;57.142;24.826;2022-09-01T00:14:53;4.78;;;2.90;;
58308;SDS011;44117;57.142;24.826;2022-09-01T00:17:21;4.30;;;3.13;;
58308;SDS011;44117;57.142;24.826;2022-09-01T00:19:48;3.58;;;2.75;;
58308;SDS011;44117;57.142;24.826;2022-09-01T00:22:16;4.70;;;3.22;;
58308;SDS011;44117;57.142;24.826;2022-09-01T00:24:43;4.13;;;3.13;;
58308;SDS011;44117;57.142;24.826;2022-09-01T00:27:11;5.82;;;3.10;;
58308;SDS011;44117;57.142;24.826;2022-09-01T00:29:38;4.68;;;3.15;;
58308;SDS011;44117;57.142;24.826;2022-09-01T00:32:09;5.65;;;3.33;;
58308;SDS011;44117;57.142;24.826;2022-09-01T00:34:37;6.45;;;3.20;;
58308;SDS011;44117;57.142;24.826;2022-09-01T00:37:05;4.60;;;3.03;;
58308;SDS011;44117;57.142;24.826;2022-09-01T00:39:33;5.38;;;2.90;;
58308;SDS011;44117;57.142;24.826;2022-09-01T00:42:01;5.55;;;2.80;;
58308;SDS011;44117;57.142;24.826;2022-09-01T00:44:28;5.85;;;3.72;;
58308;SDS011;44117;57.142;24.826;2022-09-01T00:46:57;5.68;;;3.10;;
58308;SDS011;44117;57.142;24.826;2022-09-01T00:52:02;7.20;;;3.42;;
58308;SDS011;44117;57.142;24.826;2022-09-01T00:54:54;5.18;;;3.53;;
58308;SDS011;44117;57.142;24.826;2022-09-01T00:57:24;7.30;;;3.78;;
58308;SDS011;44117;57.142;24.826;2022-09-01T00:59:56;6.22;;;4.25;;
58308;SDS011;44117;57.142;24.826;2022-09-01T01:02:27;6.45;;;3.53;;
58308;SDS011;44117;57.142;24.826;2022-09-01T01:04:55;7.70;;;4.50;;
58308;SDS011;44117;57.142;24.826;2022-09-01T01:07:25;8.25;;;3.90;;
58308;SDS011;44117;57.142;24.826;2022-09-01T01:09:54;6.65;;;4.03;;
58308;SDS011;44117;57.142;24.826;2022-09-01T01:12:21;5.57;;;3.72;;
58308;SDS011;44117;57.142;24.826;2022-09-01T01:14:49;5.63;;;3.55;;
58308;SDS011;44117;57.142;24.826;2022-09-01T01:17:17;6.20;;;3.75;;
58308;SDS011;44117;57.142;24.826;2022-09-01T01:19:47;6.32;;;3.58;;
58308;SDS011;44117;57.142;24.826;2022-09-01T01:22:55;5.45;;;3.50;;
58308;SDS011;44117;57.142;24.826;2022-09-01T01:25:50;6.57;;;3.55;;
58308;SDS011;44117;57.142;24.826;2022-09-01T01:28:23;7.18;;;3.75;;
58308;SDS011;44117;57.142;24.826;2022-09-01T01:31:04;6.85;;;4.28;;
58308;SDS011;44117;57.142;24.826;2022-09-01T01:33:44;6.85;;;3.88;;
58308;SDS011;44117;57.142;24.826;2022-09-01T01:36:15;6.57;;;3.80;;
58308;SDS011;44117;57.142;24.826;2022-09-01T01:38:59;5.72;;;3.50;;
58308;SDS011;44117;57.142;24.826;2022-09-01T01:41:30;6.60;;;3.95;;
58308;SDS011;44117;57.142;24.826;2022-09-01T01:43:59;5.45;;;3.70;;
58308;SDS011;44117;57.142;24.826;2022-09-01T01:46:30;6.38;;;3.53;;
58308;SDS011;44117;57.142;24.826;2022-09-01T01:49:00;8.65;;;3.97;;
58308;SDS011;44117;57.142;24.826;2022-09-01T01:51:28;5.43;;;3.67;;
58308;SDS011;44117;57.142;24.826;2022-09-01T01:53:57;6.70;;;3.50;;
58308;SDS011;44117;57.142;24.826;2022-09-01T01:56:27;5.45;;;3.60;;
58308;SDS011;44117;57.142;24.826;2022-09-01T01:58:55;6.43;;;3.95;;
58308;SDS011;44117;57.142;24.826;2022-09-01T02:01:24;6.05;;;3.40;;
58308;SDS011;44117;57.142;24.826;2022-09-01T02:03:55;6.22;;;3.53;;
58308;SDS011;44117;57.142;24.826;2022-09-01T02:06:26;7.20;;;4.45;;
58308;SDS011;44117;57.142;24.826;2022-09-01T02:08:55;6.57;;;4.13;;
58308;SDS011;44117;57.142;24.826;2022-09-01T02:11:24;7.35;;;3.70;;
58308;SDS011;44117;57.142;24.826;2022-09-01T02:13:54;7.32;;;4.18;;
58308;SDS011;44117;57.142;24.826;2022-09-01T02:16:23;6.63;;;4.05;;
58308;SDS011;44117;57.142;24.826;2022-09-01T02:18:53;6.50;;;4.25;;
58308;SDS011;44117;57.142;24.826;2022-09-01T02:21:22;6.10;;;3.92;;
58308;SDS011;44117;57.142;24.826;2022-09-01T02:23:53;8.27;;;5.47;;
58308;SDS011;44117;57.142;24.826;2022-09-01T02:26:30;10.90;;;6.70;;
58308;SDS011;44117;57.142;24.826;2022-09-01T02:29:01;9.73;;;6.75;;
58308;SDS011;44117;57.142;24.826;2022-09-01T02:31:31;7.18;;;4.80;;
58308;SDS011;44117;57.142;24.826;2022-09-01T02:34:07;11.95;;;7.55;;
58308;SDS011;44117;57.142;24.826;2022-09-01T02:36:37;19.20;;;12.00;;
58308;SDS011;44117;57.142;24.826;2022-09-01T02:39:31;19.35;;;13.35;;
58308;SDS011;44117;57.142;24.826;2022-09-01T02:41:59;17.70;;;11.48;;
58308;SDS011;44117;57.142;24.826;2022-09-01T02:44:27;15.35;;;9.75;;
58308;SDS011;44117;57.142;24.826;2022-09-01T02:46:57;11.00;;;7.30;;
58308;SDS011;44117;57.142;24.826;2022-09-01T02:49:26;8.15;;;4.43;;
58308;SDS011;44117;57.142;24.826;2022-09-01T02:51:57;8.63;;;4.88;;
58308;SDS011;44117;57.142;24.826;2022-09-01T02:54:28;6.47;;;4.28;;
58308;SDS011;44117;57.142;24.826;2022-09-01T02:56:57;9.75;;;5.53;;
58308;SDS011;44117;57.142;24.826;2022-09-01T02:59:26;8.15;;;4.57;;
58308;SDS011;44117;57.142;24.826;2022-09-01T03:01:55;7.18;;;4.20;;
58308;SDS011;44117;57.142;24.826;2022-09-01T03:04:23;7.20;;;4.00;;
58308;SDS011;44117;57.142;24.826;2022-09-01T03:06:52;10.27;;;5.25;;
58308;SDS011;44117;57.142;24.826;2022-09-01T03:09:24;10.68;;;7.15;;
58308;SDS011;44117;57.142;24.826;2022-09-01T03:11:52;9.80;;;5.65;;
58308;SDS011;44117;57.142;24.826;2022-09-01T03:14:20;9.63;;;5.75;;
58308;SDS011;44117;57.142;24.826;2022-09-01T03:16:49;6.45;;;3.97;;
58308;SDS011;44117;57.142;24.826;2022-09-01T03:19:17;8.10;;;4.07;;
58308;SDS011;44117;57.142;24.826;2022-09-01T03:21:45;6.10;;;3.88;;
58308;SDS011;44117;57.142;24.826;2022-09-01T03:24:15;7.07;;;3.95;;
58308;SDS011;44117;57.142;24.826;2022-09-01T03:26:44;6.68;;;3.72;;
58308;SDS011;44117;57.142;24.826;2022-09-01T03:29:16;6.75;;;3.80;;
58308;SDS011;44117;57.142;24.826;2022-09-01T03:31:44;6.30;;;3.45;;
58308;SDS011;44117;57.142;24.826;2022-09-01T03:34:12;7.47;;;3.90;;
58308;SDS011;44117;57.142;24.826;2022-09-01T03:36:42;8.65;;;4.55;;
58308;SDS011;44117;57.142;24.826;2022-09-01T03:41:44;9.80;;;3.85;;
58308;SDS011;44117;57.142;24.826;2022-09-01T03:44:12;7.25;;;3.80;;
58308;SDS011;44117;57.142;24.826;2022-09-01T03:46:42;8.05;;;3.50;;
58308;SDS011;44117;57.142;24.826;2022-09-01T03:49:10;9.77;;;4.28;;
58308;SDS011;44117;57.142;24.826;2022-09-01T03:51:50;8.95;;;3.83;;
58308;SDS011;44117;57.142;24.826;2022-09-01T03:54:20;8.38;;;4.43;;
58308;SDS011;44117;57.142;24.826;2022-09-01T03:56:56;7.38;;;4.15;;
58308;SDS011;44117;57.142;24.826;2022-09-01T03:59:25;6.32;;;3.92;;
58308;SDS011;44117;57.142;24.826;2022-09-01T04:01:54;7.65;;;3.78;;
58308;SDS011;44117;57.142;24.826;2022-09-01T04:04:22;6.45;;;3.60;;
58308;SDS011;44117;57.142;24.826;2022-09-01T04:06:50;7.57;;;3.67;;
58308;SDS011;44117;57.142;24.826;2022-09-01T04:09:17;8.02;;;3.95;;
58308;SDS011;44117;57.142;24.826;2022-09-01T04:11:46;6.78;;;3.53;;
58308;SDS011;44117;57.142;24.826;2022-09-01T04:14:13;6.38;;;3.80;;
58308;SDS011;44117;57.142;24.826;2022-09-01T04:16:41;7.55;;;3.70;;
58308;SDS011;44117;57.142;24.826;2022-09-01T04:19:31;6.07;;;3.47;;
58308;SDS011;44117;57.142;24.826;2022-09-01T04:22:02;4.82;;;3.47;;
58308;SDS011;44117;57.142;24.826;2022-09-01T04:24:31;6.55;;;3.33;;
58308;SDS011;44117;57.142;24.826;2022-09-01T04:26:59;5.40;;;3.30;;
58308;SDS011;44117;57.142;24.826;2022-09-01T04:29:29;6.53;;;3.50;;
58308;SDS011;44117;57.142;24.826;2022-09-01T04:32:01;6.78;;;3.08;;
58308;SDS011;44117;57.142;24.826;2022-09-01T04:34:34;5.18;;;3.45;;
58308;SDS011;44117;57.142;24.826;2022-09-01T04:37:10;8.35;;;3.92;;
58308;SDS011;44117;57.142;24.826;2022-09-01T04:39:40;6.53;;;2.88;;
58308;SDS011;44117;57.142;24.826;2022-09-01T04:42:19;5.53;;;2.95;;
58308;SDS011;44117;57.142;24.826;2022-09-01T04:44:50;6.72;;;3.65;;
58308;SDS011;44117;57.142;24.826;2022-09-01T04:47:19;5.68;;;2.90;;
58308;SDS011;44117;57.142;24.826;2022-09-01T04:50:02;7.40;;;3.20;;
58308;SDS011;44117;57.142;24.826;2022-09-01T04:52:39;4.85;;;3.58;;
58308;SDS011;44117;57.142;24.826;2022-09-01T04:55:08;6.45;;;3.00;;
58308;SDS011;44117;57.142;24.826;2022-09-01T04:57:44;7.43;;;3.42;;
58308;SDS011;44117;57.142;24.826;2022-09-01T05:00:16;5.72;;;2.75;;
58308;SDS011;44117;57.142;24.826;2022-09-01T05:02:52;4.72;;;2.88;;
58308;SDS011;44117;57.142;24.826;2022-09-01T05:05:26;5.53;;;2.90;;
58308;SDS011;44117;57.142;24.826;2022-09-01T05:07:54;4.13;;;2.80;;
58308;SDS011;44117;57.142;24.826;2022-09-01T05:10:23;5.00;;;2.78;;
58308;SDS011;44117;57.142;24.826;2022-09-01T05:12:55;3.42;;;2.10;;
58308;SDS011;44117;57.142;24.826;2022-09-01T05:15:23;3.50;;;2.60;;
58308;SDS011;44117;57.142;24.826;2022-09-01T05:17:50;4.22;;;2.78;;
58308;SDS011;44117;57.142;24.826;2022-09-01T05:20:21;4.53;;;2.55;;
58308;SDS011;44117;57.142;24.826;2022-09-01T05:22:50;5.50;;;3.03;;
58308;SDS011;44117;57.142;24.826;2022-09-01T05:25:20;3.67;;;2.40;;
58308;SDS011;44117;57.142;24.826;2022-09-01T05:27:48;4.57;;;2.95;;
58308;SDS011;44117;57.142;24.826;2022-09-01T05:30:17;4.57;;;2.70;;
58308;SDS011;44117;57.142;24.826;2022-09-01T05:32:44;5.40;;;2.85;;
58308;SDS011;44117;57.142;24.826;2022-09-01T05:35:14;4.18;;;2.60;;
58308;SDS011;44117;57.142;24.826;2022-09-01T05:37:42;4.53;;;2.70;;
58308;SDS011;44117;57.142;24.826;2022-09-01T05:40:10;5.30;;;2.65;;
58308;SDS011;44117;57.142;24.826;2022-09-01T05:42:44;5.45;;;3.00;;
58308;SDS011;44117;57.142;24.826;2022-09-01T05:45:13;4.65;;;2.42;;
58308;SDS011;44117;57.142;24.826;2022-09-01T05:47:40;3.45;;;2.63;;
58308;SDS011;44117;57.142;24.826;2022-09-01T05:50:08;4.03;;;2.78;;
58308;SDS011;44117;57.142;24.826;2022-09-01T05:52:40;2.50;;;1.83;;
58308;SDS011;44117;57.142;24.826;2022-09-01T05:55:10;3.17;;;2.28;;
58308;SDS011;44117;57.142;24.826;2022-09-01T05:57:37;4.95;;;2.20;;
58308;SDS011;44117;57.142;24.826;2022-09-01T06:00:06;3.25;;;2.05;;
58308;SDS011;44117;57.142;24.826;2022-09-01T06:02:40;3.13;;;1.90;;
58308;SDS011;44117;57.142;24.826;2022-09-01T06:05:08;3.33;;;2.40;;
58308;SDS011;44117;57.142;24.826;2022-09-01T06:07:37;5.45;;;2.53;;
58308;SDS011;44117;57.142;24.826;2022-09-01T06:10:06;2.40;;;2.00;;
58308;SDS011;44117;57.142;24.826;2022-09-01T06:12:34;2.85;;;2.00;;
58308;SDS011;44117;57.142;24.826;2022-09-01T06:15:02;3.58;;;2.10;;
58308;SDS011;44117;57.142;24.826;2022-09-01T06:17:30;4.47;;;2.38;;
58308;SDS011;44117;57.142;24.826;2022-09-01T06:20:02;2.47;;;1.95;;
58308;SDS011;44117;57.142;24.826;2022-09-01T06:22:36;2.90;;;2.10;;
58308;SDS011;44117;57.142;24.826;2022-09-01T06:25:04;6.30;;;2.17;;
58308;SDS011;44117;57.142;24.826;2022-09-01T06:27:33;4.05;;;2.08;;
58308;SDS011;44117;57.142;24.826;2022-09-01T06:30:08;3.22;;;1.77;;
58308;SDS011;44117;57.142;24.826;2022-09-01T06:32:41;3.97;;;2.00;;
58308;SDS011;44117;57.142;24.826;2022-09-01T06:35:12;2.65;;;1.63;;
58308;SDS011;44117;57.142;24.826;2022-09-01T06:37:43;3.05;;;2.20;;
58308;SDS011;44117;57.142;24.826;2022-09-01T06:40:12;5.05;;;1.83;;
58308;SDS011;44117;57.142;24.826;2022-09-01T06:42:44;3.05;;;2.15;;
58308;SDS011;44117;57.142;24.826;2022-09-01T06:45:14;2.13;;;1.77;;
58308;SDS011;44117;57.142;24.826;2022-09-01T06:47:43;1.95;;;1.77;;
58308;SDS011;44117;57.142;24.826;2022-09-01T06:50:11;2.83;;;1.83;;
58308;SDS011;44117;57.142;24.826;2022-09-01T06:53:01;1.95;;;1.70;;
58308;SDS011;44117;57.142;24.826;2022-09-01T06:55:56;4.53;;;1.70;;
58308;SDS011;44117;57.142;24.826;2022-09-01T06:58:24;1.45;;;1.33;;
58308;SDS011;44117;57.142;24.826;2022-09-01T07:00:51;1.85;;;1.50;;
58308;SDS011;44117;57.142;24.826;2022-09-01T07:03:19;1.50;;;1.30;;
58308;SDS011;44117;57.142;24.826;2022-09-01T07:05:50;1.42;;;1.33;;
58308;SDS011;44117;57.142;24.826;2022-09-01T07:08:35;1.33;;;1.23;;
58308;SDS011;44117;57.142;24.826;2022-09-01T07:11:26;1.35;;;1.20;;
58308;SDS011;44117;57.142;24.826;2022-09-01T07:14:16;2.60;;;1.38;;
58308;SDS011;44117;57.142;24.826;2022-09-01T07:16:45;1.30;;;1.20;;
58308;SDS011;44117;57.142;24.826;2022-09-01T07:19:18;1.77;;;1.20;;
58308;SDS011;44117;57.142;24.826;2022-09-01T07:21:46;1.30;;;1.20;;
58308;SDS011;44117;57.142;24.826;2022-09-01T07:24:33;2.08;;;1.20;;
58308;SDS011;44117;57.142;24.826;2022-09-01T07:27:01;1.85;;;1.10;;
58308;SDS011;44117;57.142;24.826;2022-09-01T07:29:36;1.98;;;1.38;;
58308;SDS011;44117;57.142;24.826;2022-09-01T07:32:06;2.85;;;1.10;;
58308;SDS011;44117;57.142;24.826;2022-09-01T07:34:55;1.70;;;1.08;;
58308;SDS011;44117;57.142;24.826;2022-09-01T07:37:26;1.08;;;0.98;;
58308;SDS011;44117;57.142;24.826;2022-09-01T07:40:14;1.30;;;1.08;;
58308;SDS011;44117;57.142;24.826;2022-09-01T07:43:05;2.70;;;1.00;;
58308;SDS011;44117;57.142;24.826;2022-09-01T07:45:42;1.63;;;1.00;;
58308;SDS011;44117;57.142;24.826;2022-09-01T07:48:24;1.23;;;1.05;;
58308;SDS011;44117;57.142;24.826;2022-09-01T07:51:14;1.63;;;1.30;;
58308;SDS011;44117;57.142;24.826;2022-09-01T07:54:03;2.10;;;1.90;;
58308;SDS011;44117;57.142;24.826;2022-09-01T07:56:31;1.10;;;1.00;;
58308;SDS011;44117;57.142;24.826;2022-09-01T07:59:05;1.73;;;1.00;;
58308;SDS011;44117;57.142;24.826;2022-09-01T08:01:34;1.67;;;1.17;;
58308;SDS011;44117;57.142;24.826;2022-09-01T08:04:02;1.90;;;1.20;;
58308;SDS011;44117;57.142;24.826;2022-09-01T08:06:29;1.00;;;1.00;;
58308;SDS011;44117;57.142;24.826;2022-09-01T08:09:06;0.98;;;0.93;;
58308;SDS011;44117;57.142;24.826;2022-09-01T08:11:37;0.98;;;0.98;;
58308;SDS011;44117;57.142;24.826;2022-09-01T08:14:24;3.40;;;1.20;;
58308;SDS011;44117;57.142;24.826;2022-09-01T08:16:52;2.15;;;1.20;;
58308;SDS011;44117;57.142;24.826;2022-09-01T08:19:20;2.30;;;1.10;;
58308;SDS011;44117;57.142;24.826;2022-09-01T08:21:48;1.10;;;0.90;;
58308;SDS011;44117;57.142;24.826;2022-09-01T08:24:15;1.42;;;0.82;;
58308;SDS011;44117;57.142;24.826;2022-09-01T08:26:43;1.83;;;1.00;;
58308;SDS011;44117;57.142;24.826;2022-09-01T08:29:10;2.50;;;0.90;;
58308;SDS011;44117;57.142;24.826;2022-09-01T08:31:37;1.45;;;0.90;;
58308;SDS011;44117;57.142;24.826;2022-09-01T08:34:05;1.25;;;0.88;;
58308;SDS011;44117;57.142;24.826;2022-09-01T08:36:32;0.80;;;0.80;;
58308;SDS011;44117;57.142;24.826;2022-09-01T08:39:00;0.82;;;0.80;;
58308;SDS011;44117;57.142;24.826;2022-09-01T08:41:44;1.23;;;0.80;;
58308;SDS011;44117;57.142;24.826;2022-09-01T08:47:42;2.00;;;0.75;;
58308;SDS011;44117;57.142;24.826;2022-09-01T08:50:29;0.98;;;0.88;;
58308;SDS011;44117;57.142;24.826;2022-09-01T08:53:08;1.00;;;0.95;;
58308;SDS011;44117;57.142;24.826;2022-09-01T08:55:48;1.30;;;1.00;;
58308;SDS011;44117;57.142;24.826;2022-09-01T08:58:21;1.75;;;1.60;;
58308;SDS011;44117;57.142;24.826;2022-09-01T09:00:57;1.88;;;0.70;;
58308;SDS011;44117;57.142;24.826;2022-09-01T09:03:37;1.25;;;0.93;;
58308;SDS011;44117;57.142;24.826;2022-09-01T09:08:59;0.80;;;0.80;;
58308;SDS011;44117;57.142;24.826;2022-09-01T09:14:09;2.17;;;0.98;;
58308;SDS011;44117;57.142;24.826;2022-09-01T09:16:57;1.73;;;0.82;;
58308;SDS011;44117;57.142;24.826;2022-09-01T09:21:58;1.63;;;0.82;;
58308;SDS011;44117;57.142;24.826;2022-09-01T09:24:32;1.50;;;0.90;;
58308;SDS011;44117;57.142;24.826;2022-09-01T09:27:27;1.75;;;0.90;;
58308;SDS011;44117;57.142;24.826;2022-09-01T09:32:59;0.98;;;0.90;;
58308;SDS011;44117;57.142;24.826;2022-09-01T09:35:56;0.80;;;0.70;;
58308;SDS011;44117;57.142;24.826;2022-09-01T09:38:44;0.80;;;0.80;;
58308;SDS011;44117;57.142;24.826;2022-09-01T09:43:59;0.95;;;0.82;;
58308;SDS011;44117;57.142;24.826;2022-09-01T09:46:42;1.60;;;0.90;;
58308;SDS011;44117;57.142;24.826;2022-09-01T09:54:36;0.77;;;0.60;;
58308;SDS011;44117;57.142;24.826;2022-09-01T09:59:35;0.70;;;0.70;;
58308;SDS011;44117;57.142;24.826;2022-09-01T10:02:37;1.33;;;0.80;;
58308;SDS011;44117;57.142;24.826;2022-09-01T10:07:49;1.45;;;0.73;;
58308;SDS011;44117;57.142;24.826;2022-09-01T10:12:54;1.35;;;0.70;;
58308;SDS011;44117;57.142;24.826;2022-09-01T10:15:23;1.05;;;0.60;;
58308;SDS011;44117;57.142;24.826;2022-09-01T10:17:57;0.90;;;0.68;;
58308;SDS011;44117;57.142;24.826;2022-09-01T10:21:01;0.47;;;0.47;;
58308;SDS011;44117;57.142;24.826;2022-09-01T10:23:35;0.50;;;0.50;;
58308;SDS011;44117;57.142;24.826;2022-09-01T10:26:29;1.80;;;0.70;;
58308;SDS011;44117;57.142;24.826;2022-09-01T10:31:46;0.98;;;0.70;;
58308;SDS011;44117;57.142;24.826;2022-09-01T10:34:14;1.75;;;0.70;;
58308;SDS011;44117;57.142;24.826;2022-09-01T10:36:45;0.70;;;0.52;;
58308;SDS011;44117;57.142;24.826;2022-09-01T10:39:22;3.28;;;0.77;;
58308;SDS011;44117;57.142;24.826;2022-09-01T10:41:59;0.85;;;0.80;;
58308;SDS011;44117;57.142;24.826;2022-09-01T10:44:34;1.50;;;0.60;;
58308;SDS011;44117;57.142;24.826;2022-09-01T10:47:12;0.80;;;0.80;;
58308;SDS011;44117;57.142;24.826;2022-09-01T10:49:57;1.63;;;0.80;;
58308;SDS011;44117;57.142;24.826;2022-09-01T10:55:12;1.75;;;0.88;;
58308;SDS011;44117;57.142;24.826;2022-09-01T11:00:52;0.80;;;0.80;;
58308;SDS011;44117;57.142;24.826;2022-09-01T11:03:50;1.35;;;0.70;;
58308;SDS011;44117;57.142;24.826;2022-09-01T11:06:32;1.33;;;0.70;;
58308;SDS011;44117;57.142;24.826;2022-09-01T11:09:03;0.93;;;0.80;;
58308;SDS011;44117;57.142;24.826;2022-09-01T11:14:03;0.73;;;0.73;;
58308;SDS011;44117;57.142;24.826;2022-09-01T11:22:30;0.57;;;0.57;;
58308;SDS011;44117;57.142;24.826;2022-09-01T11:30:20;2.72;;;0.80;;
58308;SDS011;44117;57.142;24.826;2022-09-01T11:32:50;1.05;;;0.60;;
58308;SDS011;44117;57.142;24.826;2022-09-01T11:35:24;0.80;;;0.80;;
58308;SDS011;44117;57.142;24.826;2022-09-01T11:37:55;0.57;;;0.57;;
58308;SDS011;44117;57.142;24.826;2022-09-01T11:40:29;2.17;;;0.63;;
58308;SDS011;44117;57.142;24.826;2022-09-01T11:43:00;0.40;;;0.40;;
58308;SDS011;44117;57.142;24.826;2022-09-01T11:45:57;0.60;;;0.60;;
58308;SDS011;44117;57.142;24.826;2022-09-01T11:48:33;0.50;;;0.40;;
58308;SDS011;44117;57.142;24.826;2022-09-01T11:51:01;0.85;;;0.40;;
58308;SDS011;44117;57.142;24.826;2022-09-01T11:53:30;1.48;;;0.50;;
58308;SDS011;44117;57.142;24.826;2022-09-01T11:56:10;0.40;;;0.38;;
58308;SDS011;44117;57.142;24.826;2022-09-01T11:58:40;0.60;;;0.60;;
58308;SDS011;44117;57.142;24.826;2022-09-01T12:01:12;2.13;;;0.68;;
58308;SDS011;44117;57.142;24.826;2022-09-01T12:03:43;1.88;;;0.75;;
58308;SDS011;44117;57.142;24.826;2022-09-01T12:06:17;1.17;;;0.60;;
58308;SDS011;44117;57.142;24.826;2022-09-01T12:08:53;1.08;;;0.45;;
58308;SDS011;44117;57.142;24.826;2022-09-01T12:11:24;0.93;;;0.82;;
58308;SDS011;44117;57.142;24.826;2022-09-01T12:14:01;0.50;;;0.50;;
58308;SDS011;44117;57.142;24.826;2022-09-01T12:16:36;0.57;;;0.45;;
58308;SDS011;44117;57.142;24.826;2022-09-01T12:19:20;1.35;;;0.57;;
58308;SDS011;44117;57.142;24.826;2022-09-01T12:24:43;6.18;;;0.88;;
58308;SDS011;44117;57.142;24.826;2022-09-01T12:27:12;1.77;;;0.60;;
58308;SDS011;44117;57.142;24.826;2022-09-01T12:29:40;0.93;;;0.40;;
58308;SDS011;44117;57.142;24.826;2022-09-01T12:32:08;1.48;;;0.43;;
58308;SDS011;44117;57.142;24.826;2022-09-01T12:34:41;0.52;;;0.47;;
58308;SDS011;44117;57.142;24.826;2022-09-01T12:39:52;0.60;;;0.50;;
58308;SDS011;44117;57.142;24.826;2022-09-01T12:42:24;0.70;;;0.45;;
58308;SDS011;44117;57.142;24.826;2022-09-01T12:45:07;0.70;;;0.60;;
58308;SDS011;44117;57.142;24.826;2022-09-01T12:52:46;1.13;;;0.60;;
58308;SDS011;44117;57.142;24.826;2022-09-01T12:55:20;0.77;;;0.50;;
58308;SDS011;44117;57.142;24.826;2022-09-01T12:58:09;1.63;;;0.55;;
58308;SDS011;44117;57.142;24.826;2022-09-01T13:03:31;1.00;;;0.70;;
58308;SDS011;44117;57.142;24.826;2022-09-01T13:06:00;0.93;;;0.70;;
58308;SDS011;44117;57.142;24.826;2022-09-01T13:08:30;2.15;;;0.70;;
58308;SDS011;44117;57.142;24.826;2022-09-01T13:11:04;3.75;;;0.80;;
58308;SDS011;44117;57.142;24.826;2022-09-01T13:13:33;1.15;;;0.80;;
58308;SDS011;44117;57.142;24.826;2022-09-01T13:16:01;1.02;;;0.80;;
58308;SDS011;44117;57.142;24.826;2022-09-01T13:18:39;1.15;;;0.70;;
58308;SDS011;44117;57.142;24.826;2022-09-01T13:21:28;2.03;;;0.80;;
58308;SDS011;44117;57.142;24.826;2022-09-01T13:23:56;0.70;;;0.70;;
58308;SDS011;44117;57.142;24.826;2022-09-01T13:26:24;1.95;;;0.80;;
58308;SDS011;44117;57.142;24.826;2022-09-01T13:28:51;1.40;;;0.80;;
58308;SDS011;44117;57.142;24.826;2022-09-01T13:31:19;0.50;;;0.50;;
58308;SDS011;44117;57.142;24.826;2022-09-01T13:33:54;0.50;;;0.50;;
58308;SDS011;44117;57.142;24.826;2022-09-01T13:36:42;0.60;;;0.60;;
58308;SDS011;44117;57.142;24.826;2022-09-01T13:39:14;1.73;;;0.77;;
58308;SDS011;44117;57.142;24.826;2022-09-01T13:41:41;5.32;;;0.90;;
58308;SDS011;44117;57.142;24.826;2022-09-01T13:44:09;1.73;;;0.80;;
58308;SDS011;44117;57.142;24.826;2022-09-01T13:46:37;1.23;;;0.88;;
58308;SDS011;44117;57.142;24.826;2022-09-01T13:49:24;0.80;;;0.80;;
58308;SDS011;44117;57.142;24.826;2022-09-01T13:52:10;3.05;;;0.90;;
58308;SDS011;44117;57.142;24.826;2022-09-01T13:54:38;1.20;;;0.70;;
58308;SDS011;44117;57.142;24.826;2022-09-01T13:57:06;0.60;;;0.60;;
58308;SDS011;44117;57.142;24.826;2022-09-01T13:59:33;0.75;;;0.60;;
58308;SDS011;44117;57.142;24.826;2022-09-01T14:02:00;1.58;;;0.60;;
58308;SDS011;44117;57.142;24.826;2022-09-01T14:04:28;0.80;;;0.60;;
58308;SDS011;44117;57.142;24.826;2022-09-01T14:06:57;0.88;;;0.57;;
58308;SDS011;44117;57.142;24.826;2022-09-01T14:09:25;2.40;;;0.70;;
58308;SDS011;44117;57.142;24.826;2022-09-01T14:11:53;1.88;;;0.70;;
58308;SDS011;44117;57.142;24.826;2022-09-01T14:14:21;1.85;;;0.77;;
58308;SDS011;44117;57.142;24.826;2022-09-01T14:16:49;2.75;;;0.80;;
58308;SDS011;44117;57.142;24.826;2022-09-01T14:19:16;2.38;;;0.60;;
58308;SDS011;44117;57.142;24.826;2022-09-01T14:21:44;1.92;;;0.50;;
58308;SDS011;44117;57.142;24.826;2022-09-01T14:24:13;0.85;;;0.50;;
58308;SDS011;44117;57.142;24.826;2022-09-01T14:26:44;1.55;;;0.70;;
58308;SDS011;44117;57.142;24.826;2022-09-01T14:29:12;1.80;;;0.50;;
58308;SDS011;44117;57.142;24.826;2022-09-01T14:31:40;1.48;;;0.55;;
58308;SDS011;44117;57.142;24.826;2022-09-01T14:34:09;1.33;;;0.60;;
58308;SDS011;44117;57.142;24.826;2022-09-01T14:36:37;1.15;;;0.47;;
58308;SDS011;44117;57.142;24.826;2022-09-01T14:39:05;1.23;;;0.50;;
58308;SDS011;44117;57.142;24.826;2022-09-01T14:41:32;1.88;;;0.70;;
58308;SDS011;44117;57.142;24.826;2022-09-01T14:44:00;1.98;;;0.60;;
58308;SDS011;44117;57.142;24.826;2022-09-01T14:46:29;2.22;;;0.50;;
58308;SDS011;44117;57.142;24.826;2022-09-01T14:49:00;1.30;;;0.40;;
58308;SDS011;44117;57.142;24.826;2022-09-01T14:51:30;1.63;;;0.40;;
58308;SDS011;44117;57.142;24.826;2022-09-01T14:54:18;0.90;;;0.50;;
58308;SDS011;44117;57.142;24.826;2022-09-01T14:56:45;1.30;;;0.52;;
58308;SDS011;44117;57.142;24.826;2022-09-01T14:59:33;7.30;;;0.65;;
58308;SDS011;44117;57.142;24.826;2022-09-01T15:02:02;0.90;;;0.52;;
58308;SDS011;44117;57.142;24.826;2022-09-01T15:04:30;0.88;;;0.63;;
58308;SDS011;44117;57.142;24.826;2022-09-01T15:06:58;0.75;;;0.50;;
58308;SDS011;44117;57.142;24.826;2022-09-01T15:09:25;1.17;;;0.40;;
58308;SDS011;44117;57.142;24.826;2022-09-01T15:11:53;0.65;;;0.40;;
58308;SDS011;44117;57.142;24.826;2022-09-01T15:14:20;0.85;;;0.45;;
58308;SDS011;44117;57.142;24.826;2022-09-01T15:16:48;0.43;;;0.43;;
58308;SDS011;44117;57.142;24.826;2022-09-01T15:19:16;0.85;;;0.52;;
58308;SDS011;44117;57.142;24.826;2022-09-01T15:21:44;1.65;;;0.57;;
58308;SDS011;44117;57.142;24.826;2022-09-01T15:24:13;1.15;;;0.60;;
58308;SDS011;44117;57.142;24.826;2022-09-01T15:26:40;2.97;;;0.57;;
58308;SDS011;44117;57.142;24.826;2022-09-01T15:29:08;1.85;;;0.60;;
58308;SDS011;44117;57.142;24.826;2022-09-01T15:31:37;2.85;;;0.50;;
58308;SDS011;44117;57.142;24.826;2022-09-01T15:34:05;1.58;;;0.68;;
58308;SDS011;44117;57.142;24.826;2022-09-01T15:36:33;1.85;;;0.50;;
58308;SDS011;44117;57.142;24.826;2022-09-01T15:39:02;2.22;;;0.57;;
58308;SDS011;44117;57.142;24.826;2022-09-01T15:41:30;0.95;;;0.40;;
58308;SDS011;44117;57.142;24.826;2022-09-01T15:44:00;1.00;;;0.40;;
58308;SDS011;44117;57.142;24.826;2022-09-01T15:46:31;0.33;;;0.30;;
58308;SDS011;44117;57.142;24.826;2022-09-01T15:49:00;1.25;;;0.50;;
58308;SDS011;44117;57.142;24.826;2022-09-01T15:51:33;2.80;;;0.57;;
58308;SDS011;44117;57.142;24.826;2022-09-01T15:54:06;0.40;;;0.40;;
58308;SDS011;44117;57.142;24.826;2022-09-01T15:56:35;1.55;;;0.30;;
58308;SDS011;44117;57.142;24.826;2022-09-01T15:59:03;1.20;;;0.43;;
58308;SDS011;44117;57.142;24.826;2022-09-01T16:01:33;2.13;;;0.45;;
58308;SDS011;44117;57.142;24.826;2022-09-01T16:04:12;1.45;;;0.45;;
58308;SDS011;44117;57.142;24.826;2022-09-01T16:06:47;2.83;;;0.50;;
58308;SDS011;44117;57.142;24.826;2022-09-01T16:09:16;1.10;;;0.52;;
58308;SDS011;44117;57.142;24.826;2022-09-01T16:11:46;0.85;;;0.50;;
58308;SDS011;44117;57.142;24.826;2022-09-01T16:14:14;2.28;;;0.50;;
58308;SDS011;44117;57.142;24.826;2022-09-01T16:19:32;4.15;;;0.60;;